Time;durP1;ratioP1;P1;durP2;ratioP2;P2;SDS_P1;SDS_P2;PMS_P1;PMS_P2;Temp;Humidity;BMP_temperature;BMP_pressure;BME280_temperature;BME280_humidity;BME280_pressure;Samples;Min_cycle;Max_cycle;Signal;HPM_P1;HPM_P2
2022/03/29 00:02:17;;;;;;;4.47;3.03;;;9.00;99.90;8.80;100387.00;;;;4999164;28;103834;-64
2022/03/29 00:04:42;;;;;;;7.63;4.27;;;8.90;99.90;8.70;100379.00;;;;4979325;28;108829;-63
2022/03/29 00:07:08;;;;;;;4.43;3.53;;;8.80;99.90;8.60;100372.00;;;;4979184;28;114074;-64
2022/03/29 00:09:34;;;;;;;5.40;3.80;;;8.80;99.90;8.50;100363.00;;;;4979888;28;84906;-64
2022/03/29 00:12:00;;;;;;;7.47;3.87;;;8.60;99.90;8.40;100367.00;;;;4986314;28;82784;-63
2022/03/29 00:14:26;;;;;;;6.10;4.70;;;8.60;99.90;8.40;100361.00;;;;5000847;28;82679;-63
2022/03/29 00:16:52;;;;;;;5.80;4.10;;;8.50;99.90;8.30;100355.00;;;;4999534;28;112812;-63
2022/03/29 00:19:18;;;;;;;6.33;3.60;;;8.30;99.90;8.20;100358.00;;;;4999918;28;83836;-63
2022/03/29 00:21:43;;;;;;;4.03;3.00;;;8.30;99.90;8.10;100362.00;;;;4996977;28;111482;-63
2022/03/29 00:24:09;;;;;;;8.17;4.60;;;8.40;99.90;8.10;100344.00;;;;4962572;28;81948;-64
2022/03/29 00:26:36;;;;;;;11.60;4.70;;;8.20;99.90;8.00;100351.00;;;;4980571;28;86666;-64
2022/03/29 00:29:02;;;;;;;5.57;3.77;;;8.20;99.90;7.90;100355.00;;;;5000084;28;83708;-63
2022/03/29 00:31:28;;;;;;;7.27;4.53;;;8.10;99.90;7.90;100345.00;;;;4989857;28;102059;-64
2022/03/29 00:33:54;;;;;;;8.17;4.43;;;8.00;99.90;7.80;100339.00;;;;4991527;28;109933;-64
2022/03/29 00:36:19;;;;;;;9.33;5.40;;;8.00;99.90;7.80;100353.00;;;;4960316;28;112464;-64
2022/03/29 00:38:48;;;;;;;9.53;5.30;;;7.90;99.90;7.70;100350.00;;;;4999212;28;83510;-64
2022/03/29 00:41:15;;;;;;;9.50;5.57;;;7.80;99.90;7.70;100354.00;;;;4981910;28;82682;-64
2022/03/29 00:43:41;;;;;;;10.53;6.03;;;7.80;99.90;7.60;100356.00;;;;4999960;28;82804;-63
2022/03/29 00:46:07;;;;;;;4.57;4.10;;;7.90;99.90;7.60;100349.00;;;;4985406;28;83847;-63
2022/03/29 00:48:33;;;;;;;6.80;4.53;;;7.70;99.90;7.50;100342.00;;;;4997048;28;83814;-64
2022/03/29 00:50:59;;;;;;;10.27;5.07;;;7.60;99.90;7.50;100350.00;;;;4999006;28;111080;-64
2022/03/29 00:53:25;;;;;;;9.23;5.23;;;7.60;99.90;7.40;100361.00;;;;4983193;28;105354;-65
2022/03/29 00:55:54;;;;;;;11.47;5.43;;;7.80;99.90;7.40;100344.00;;;;4959852;28;114181;-64
2022/03/29 00:58:20;;;;;;;9.10;5.50;;;7.50;99.90;7.30;100342.00;;;;4979593;28;84834;-65
2022/03/29 01:00:47;;;;;;;8.07;5.57;;;7.60;99.90;7.20;100343.00;;;;4994862;28;110853;-65
2022/03/29 01:03:15;;;;;;;7.43;5.57;;;7.40;99.90;7.10;100348.00;;;;4964291;28;82886;-64
2022/03/29 01:05:41;;;;;;;8.53;5.83;;;7.30;99.90;7.10;100335.00;;;;4999104;28;83681;-65
2022/03/29 01:08:07;;;;;;;12.50;5.87;;;7.20;99.90;7.00;100335.00;;;;4999003;28;103153;-64
2022/03/29 01:10:34;;;;;;;8.83;5.17;;;7.20;99.90;6.90;100341.00;;;;4971574;28;82641;-64
2022/03/29 01:12:59;;;;;;;10.00;5.70;;;7.10;99.90;6.80;100335.00;;;;4962880;28;82139;-64
2022/03/29 01:15:26;;;;;;;6.20;5.47;;;7.00;99.90;6.80;100321.00;;;;4977584;28;113562;-64
2022/03/29 01:17:54;;;;;;;12.07;6.50;;;7.00;99.90;6.70;100318.00;;;;4979092;28;82804;-64
2022/03/29 01:20:27;;;;;;;8.17;5.80;;;6.80;99.90;6.60;100305.00;;;;4983489;28;83800;-64
2022/03/29 01:22:54;;;;;;;12.30;6.23;;;5.60;99.90;6.60;100304.00;;;;4999587;28;82671;-65
2022/03/29 01:25:42;;;;;;;7.67;5.70;;;6.70;99.90;6.50;100306.00;;;;4988157;28;83069;-65
2022/03/29 01:28:10;;;;;;;11.53;5.53;;;6.70;99.90;6.40;100303.00;;;;4960962;28;82818;-65
2022/03/29 01:30:35;;;;;;;7.93;5.67;;;6.60;99.90;6.40;100307.00;;;;4959882;28;102912;-64
2022/03/29 01:33:06;;;;;;;8.00;4.93;;;6.50;99.90;6.30;100309.00;;;;4991895;28;108405;-64
2022/03/29 01:35:32;;;;;;;9.47;6.43;;;6.80;99.90;6.30;100310.00;;;;4984645;28;83759;-65
2022/03/29 01:37:58;;;;;;;7.47;6.20;;;6.40;99.90;6.20;100314.00;;;;4965441;28;87874;-65
2022/03/29 01:40:26;;;;;;;12.00;5.80;;;6.40;99.90;6.20;100303.00;;;;4978435;28;110324;-65
2022/03/29 01:42:55;;;;;;;12.33;7.23;;;6.30;99.90;6.10;100301.00;;;;4985998;28;82561;-64
2022/03/29 01:45:24;;;;;;;7.70;6.20;;;6.30;99.90;6.00;100308.00;;;;4998147;28;84720;-65
2022/03/29 01:47:49;;;;;;;11.93;6.60;;;6.20;99.90;6.00;100299.00;;;;4999586;28;84132;-65
2022/03/29 01:50:16;;;;;;;10.97;6.47;;;6.20;99.90;5.90;100301.00;;;;4996615;28;100220;-65
2022/03/29 01:52:45;;;;;;;11.47;6.43;;;6.30;99.90;5.90;100294.00;;;;4989692;28;82644;-65
2022/03/29 01:55:13;;;;;;;11.50;6.90;;;6.00;99.90;5.80;100299.00;;;;4978921;28;96188;-64
2022/03/29 01:57:39;;;;;;;9.97;5.70;;;6.00;99.90;5.80;100289.00;;;;4984751;27;82855;-64
2022/03/29 02:02:53;;;;;;;13.67;6.93;;;5.90;99.90;5.70;100294.00;;;;4996561;28;81949;-64
2022/03/29 02:05:20;;;;;;;12.83;7.67;;;5.90;99.90;5.70;100296.00;;;;4997836;28;83366;-63
2022/03/29 02:07:46;;;;;;;9.73;6.87;;;5.80;99.90;5.70;100294.00;;;;4997158;28;84965;-63
2022/03/29 02:10:18;;;;;;;11.00;6.80;;;5.80;99.90;5.60;100292.00;;;;4997909;28;110196;-63
2022/03/29 02:12:44;;;;;;;10.07;6.43;;;5.80;99.90;5.60;100292.00;;;;4979505;28;83839;-64
2022/03/29 02:15:10;;;;;;;12.33;5.53;;;5.70;99.90;5.60;100297.00;;;;4998643;28;82739;-64
2022/03/29 02:17:36;;;;;;;13.53;7.57;;;5.70;99.90;5.60;100286.00;;;;4987382;28;94866;-63
2022/03/29 02:20:03;;;;;;;14.50;7.43;;;5.80;99.90;5.60;100279.00;;;;4977477;28;111711;-63
2022/03/29 02:22:32;;;;;;;9.53;6.17;;;5.70;99.90;5.50;100275.00;;;;4987301;28;82787;-64
2022/03/29 02:24:57;;;;;;;10.60;6.93;;;5.80;99.90;5.50;100272.00;;;;4989997;28;83135;-64
2022/03/29 02:27:23;;;;;;;8.27;5.63;;;6.00;99.90;5.50;100275.00;;;;4978805;28;104535;-63
2022/03/29 02:29:49;;;;;;;9.00;5.77;;;5.60;99.90;5.50;100267.00;;;;4977328;28;110705;-64
2022/03/29 02:32:14;;;;;;;10.97;7.03;;;5.60;99.90;5.40;100269.00;;;;4984340;28;106046;-64
2022/03/29 02:34:40;;;;;;;12.93;6.47;;;5.60;99.90;5.40;100262.00;;;;4971290;28;84936;-64
2022/03/29 02:37:06;;;;;;;10.03;6.47;;;5.60;99.90;5.40;100258.00;;;;4993607;28;114033;-64
2022/03/29 02:39:31;;;;;;;10.47;6.33;;;5.60;99.90;5.30;100263.00;;;;4997109;28;110694;-64
2022/03/29 02:41:57;;;;;;;10.67;6.87;;;5.50;99.90;5.30;100266.00;;;;4997838;28;103019;-64
2022/03/29 02:44:23;;;;;;;11.80;7.53;;;5.40;99.90;5.20;100255.00;;;;4997340;28;112832;-64
2022/03/29 02:46:50;;;;;;;17.07;5.97;;;5.40;99.90;5.20;100261.00;;;;4983429;28;83671;-63
2022/03/29 02:49:16;;;;;;;11.07;6.77;;;5.40;99.90;5.20;100263.00;;;;4996853;28;82618;-64
2022/03/29 02:51:42;;;;;;;11.97;7.37;;;5.30;99.90;5.10;100257.00;;;;4995495;28;82085;-64
2022/03/29 02:54:08;;;;;;;11.67;7.20;;;5.30;99.90;5.10;100264.00;;;;4978024;28;83756;-65
2022/03/29 02:56:34;;;;;;;8.90;6.20;;;5.20;99.90;5.00;100260.00;;;;4978055;28;83723;-64
2022/03/29 02:59:00;;;;;;;13.70;6.83;;;5.20;99.90;4.90;100261.00;;;;4958067;28;106828;-64
2022/03/29 03:01:29;;;;;;;15.57;7.43;;;5.20;99.90;4.90;100265.00;;;;4992749;28;82761;-64
2022/03/29 03:03:56;;;;;;;9.33;6.67;;;5.10;99.90;4.90;100259.00;;;;4979309;28;83299;-64
2022/03/29 03:06:22;;;;;;;15.83;7.60;;;5.10;99.90;4.90;100256.00;;;;4997717;28;82674;-63
2022/03/29 03:08:48;;;;;;;12.27;6.77;;;5.00;99.90;4.80;100267.00;;;;4997368;28;82685;-63
2022/03/29 03:11:13;;;;;;;10.30;6.90;;;5.00;99.90;4.80;100259.00;;;;4997329;27;82792;-64
2022/03/29 03:13:39;;;;;;;15.10;7.50;;;5.00;99.90;4.80;100259.00;;;;4991134;28;111888;-64
2022/03/29 03:16:05;;;;;;;7.30;6.37;;;5.00;99.90;4.80;100250.00;;;;4978558;28;82545;-64
2022/03/29 03:18:32;;;;;;;9.13;6.33;;;5.00;99.90;4.80;100251.00;;;;4977632;28;82818;-64
2022/03/29 03:20:59;;;;;;;12.03;7.13;;;4.90;99.90;4.80;100254.00;;;;4980834;28;82867;-64
2022/03/29 03:23:25;;;;;;;11.73;7.37;;;4.90;99.90;4.70;100260.00;;;;4976420;28;113604;-64
2022/03/29 03:25:51;;;;;;;10.83;7.17;;;4.90;99.90;4.70;100263.00;;;;4977006;28;84522;-63
2022/03/29 03:28:17;;;;;;;11.87;7.40;;;4.90;99.90;4.70;100264.00;;;;4977241;28;82706;-64
2022/03/29 03:30:43;;;;;;;10.50;5.63;;;4.90;99.90;4.70;100265.00;;;;4977170;28;108688;-63
2022/03/29 03:33:09;;;;;;;15.30;8.20;;;4.90;99.90;4.70;100259.00;;;;4977809;28;83299;-63
2022/03/29 03:35:34;;;;;;;16.60;8.50;;;4.90;99.90;4.70;100259.00;;;;4986254;28;111224;-64
2022/03/29 03:38:00;;;;;;;11.07;7.73;;;4.90;99.90;4.70;100260.00;;;;4980683;28;110491;-63
2022/03/29 03:40:26;;;;;;;13.67;8.37;;;4.80;99.90;4.70;100252.00;;;;4977377;28;81900;-63
2022/03/29 03:42:52;;;;;;;13.60;7.53;;;4.90;99.90;4.70;100263.00;;;;4976303;28;102805;-64
2022/03/29 03:45:17;;;;;;;9.97;7.17;;;4.90;99.90;4.80;100250.00;;;;4957870;28;111255;-63
2022/03/29 03:47:46;;;;;;;9.53;6.70;;;4.90;99.90;4.80;100252.00;;;;4984765;28;110133;-63
2022/03/29 03:50:12;;;;;;;10.10;6.93;;;5.00;99.90;4.90;100253.00;;;;4996785;28;82831;-63
2022/03/29 03:52:37;;;;;;;11.53;6.77;;;5.50;99.90;5.00;100252.00;;;;4987214;28;91565;-63
2022/03/29 03:55:04;;;;;;;13.83;8.60;;;5.10;99.90;5.00;100248.00;;;;4977418;28;83621;-62
2022/03/29 03:57:31;;;;;;;11.60;8.07;;;5.10;99.90;5.10;100252.00;;;;4977279;28;82647;-62
2022/03/29 03:59:56;;;;;;;13.13;7.87;;;5.60;99.90;5.20;100247.00;;;;4977513;28;101310;-63
2022/03/29 04:02:23;;;;;;;9.50;6.70;;;5.30;99.90;5.30;100240.00;;;;4978250;28;83735;-63
2022/03/29 04:04:49;;;;;;;13.70;6.83;;;5.40;99.90;5.30;100240.00;;;;4977598;28;85554;-63
2022/03/29 04:07:15;;;;;;;9.87;6.50;;;5.40;99.90;5.40;100243.00;;;;4977331;28;83032;-63
2022/03/29 04:09:41;;;;;;;13.27;7.33;;;5.70;99.90;5.40;100247.00;;;;4976092;28;109466;-64
2022/03/29 04:12:08;;;;;;;17.03;9.13;;;5.50;99.90;5.50;100246.00;;;;4995081;28;113069;-64
2022/03/29 04:14:34;;;;;;;9.90;7.50;;;5.60;99.90;5.60;100251.00;;;;4996451;28;84524;-64
2022/03/29 04:17:00;;;;;;;17.50;8.70;;;5.60;99.90;5.60;100248.00;;;;4997104;28;82819;-64
2022/03/29 04:19:25;;;;;;;12.67;8.57;;;5.70;99.90;5.60;100240.00;;;;4992900;28;82705;-64
2022/03/29 04:21:51;;;;;;;14.27;7.10;;;5.70;99.90;5.70;100234.00;;;;4994603;27;109070;-63
2022/03/29 04:24:17;;;;;;;11.90;8.00;;;5.80;99.90;5.70;100233.00;;;;4996752;28;109981;-63
2022/03/29 04:26:42;;;;;;;10.13;7.13;;;5.80;99.90;5.80;100217.00;;;;4981941;28;91789;-64
2022/03/29 04:29:08;;;;;;;10.13;6.83;;;5.90;99.90;5.80;100220.00;;;;4989702;28;108989;-63
2022/03/29 04:31:34;;;;;;;10.07;7.03;;;5.90;99.90;5.80;100213.00;;;;4980072;28;101964;-64
2022/03/29 04:34:00;;;;;;;10.13;7.20;;;6.30;99.90;5.80;100227.00;;;;4979662;28;111964;-63
2022/03/29 04:36:27;;;;;;;12.43;6.80;;;6.40;99.90;5.80;100213.00;;;;4979936;28;83549;-63
2022/03/29 04:38:54;;;;;;;10.53;6.83;;;5.90;99.90;5.80;100230.00;;;;4980024;28;82508;-64
2022/03/29 04:41:21;;;;;;;9.57;7.07;;;6.00;99.90;5.90;100232.00;;;;4979412;28;84088;-64
2022/03/29 04:43:47;;;;;;;17.10;7.63;;;6.50;99.90;5.90;100224.00;;;;4980584;28;83878;-63
2022/03/29 04:46:13;;;;;;;10.13;7.63;;;6.00;99.90;5.90;100221.00;;;;4960311;28;82673;-62
2022/03/29 04:48:38;;;;;;;8.13;6.97;;;6.20;99.90;5.90;100217.00;;;;4982303;28;82643;-62
2022/03/29 04:51:04;;;;;;;11.63;7.77;;;6.60;99.90;5.90;100218.00;;;;4995431;28;113750;-62
2022/03/29 04:53:30;;;;;;;13.43;7.23;;;6.30;99.90;6.00;100223.00;;;;4996375;28;97441;-62
2022/03/29 04:55:56;;;;;;;12.50;7.07;;;6.00;99.90;5.90;100232.00;;;;4994734;28;106441;-63
2022/03/29 04:58:23;;;;;;;12.40;8.10;;;6.10;99.90;6.00;100233.00;;;;4989908;28;82786;-63
2022/03/29 05:00:48;;;;;;;9.57;6.93;;;6.10;99.90;6.00;100227.00;;;;4995502;28;101157;-63
2022/03/29 05:03:14;;;;;;;12.33;7.57;;;6.10;99.90;6.00;100231.00;;;;4988232;28;113363;-64
2022/03/29 05:05:40;;;;;;;18.97;9.80;;;6.10;99.90;6.00;100230.00;;;;4994876;28;111104;-63
2022/03/29 05:08:06;;;;;;;12.63;7.83;;;6.10;99.90;6.10;100235.00;;;;4977793;28;82749;-64
2022/03/29 05:10:32;;;;;;;10.00;6.73;;;6.20;99.90;6.10;100228.00;;;;4995122;28;96481;-64
2022/03/29 05:12:57;;;;;;;11.93;7.80;;;6.20;99.90;6.10;100228.00;;;;4967547;28;82841;-64
2022/03/29 05:15:23;;;;;;;14.03;7.63;;;6.20;99.90;6.20;100232.00;;;;4979010;28;110794;-64
2022/03/29 05:17:49;;;;;;;13.43;7.17;;;6.20;99.90;6.20;100227.00;;;;4977395;28;94577;-64
2022/03/29 05:20:17;;;;;;;15.87;7.97;;;6.30;99.90;6.20;100223.00;;;;4978465;28;83176;-64
2022/03/29 05:22:51;;;;;;;13.03;7.87;;;6.30;99.90;6.20;100223.00;;;;4989320;28;91502;-63
2022/03/29 05:25:22;;;;;;;8.47;7.27;;;6.30;99.90;6.20;100234.00;;;;4980954;28;83680;-64
2022/03/29 05:27:49;;;;;;;9.87;6.13;;;6.30;99.90;6.30;100231.00;;;;4980266;28;82508;-64
2022/03/29 05:30:15;;;;;;;11.50;7.60;;;6.30;99.90;6.30;100230.00;;;;4979985;28;82681;-64
2022/03/29 05:32:42;;;;;;;10.87;6.63;;;6.40;99.90;6.30;100221.00;;;;4978696;28;82635;-63
2022/03/29 05:35:10;;;;;;;16.20;7.30;;;6.40;99.90;6.30;100234.00;;;;4978785;28;97128;-64
2022/03/29 05:37:39;;;;;;;9.43;7.13;;;6.80;99.90;6.30;100239.00;;;;4979978;28;82648;-64
2022/03/29 05:40:09;;;;;;;11.53;7.40;;;6.70;99.90;6.40;100233.00;;;;4960128;28;104466;-64
2022/03/29 05:42:42;;;;;;;12.17;7.40;;;6.40;99.90;6.40;100227.00;;;;4979968;28;82850;-63
2022/03/29 05:45:10;;;;;;;11.47;7.77;;;6.50;99.90;6.40;100236.00;;;;4978741;28;83229;-64
2022/03/29 05:50:21;;;;;;;10.40;6.77;;;6.50;99.90;6.40;100236.00;;;;4996927;28;84052;-64
2022/03/29 05:52:47;;;;;;;19.17;7.97;;;6.50;99.90;6.50;100243.00;;;;4976951;28;82493;-63
2022/03/29 05:55:12;;;;;;;17.03;8.03;;;6.50;99.90;6.50;100243.00;;;;4978530;28;94682;-64
2022/03/29 05:57:38;;;;;;;13.90;7.37;;;6.60;99.90;6.50;100251.00;;;;4978382;28;100441;-64
2022/03/29 06:00:08;;;;;;;13.60;7.87;;;6.90;99.90;6.50;100244.00;;;;4979361;28;83286;-64
2022/03/29 06:02:34;;;;;;;11.17;6.63;;;6.60;99.90;6.50;100245.00;;;;4979081;28;82851;-63
2022/03/29 06:05:00;;;;;;;10.60;6.53;;;6.60;99.90;6.50;100244.00;;;;4979088;28;82718;-64
2022/03/29 06:07:26;;;;;;;13.47;8.07;;;7.00;99.90;6.50;100242.00;;;;4980867;28;81975;-63
2022/03/29 06:09:52;;;;;;;10.93;5.93;;;6.60;99.90;6.60;100256.00;;;;4978927;28;83548;-63
2022/03/29 06:12:22;;;;;;;13.83;6.80;;;6.60;99.90;6.60;100257.00;;;;4985861;28;82875;-63
2022/03/29 06:14:49;;;;;;;14.37;6.97;;;6.60;99.90;6.60;100253.00;;;;4997326;28;103781;-63
2022/03/29 06:17:15;;;;;;;16.47;8.20;;;6.70;99.90;6.60;100258.00;;;;5003603;28;82752;-64
2022/03/29 06:19:44;;;;;;;14.30;7.50;;;6.70;99.90;6.60;100259.00;;;;4997820;28;82853;-63
2022/03/29 06:22:10;;;;;;;9.70;7.30;;;6.70;99.90;6.60;100263.00;;;;4997207;28;83651;-64
2022/03/29 06:24:36;;;;;;;8.73;6.40;;;6.70;99.90;6.60;100260.00;;;;4992169;28;101083;-63
2022/03/29 06:27:02;;;;;;;13.70;7.70;;;6.70;99.90;6.70;100260.00;;;;4982425;28;109648;-63
2022/03/29 06:29:28;;;;;;;13.73;9.47;;;6.70;99.90;6.70;100260.00;;;;4979608;28;83014;-62
2022/03/29 06:31:54;;;;;;;12.73;8.77;;;6.70;99.90;6.70;100250.00;;;;4978869;28;84010;-64
2022/03/29 06:34:21;;;;;;;12.13;7.73;;;6.70;99.90;6.70;100250.00;;;;4964851;28;82707;-63
2022/03/29 06:36:47;;;;;;;11.63;7.93;;;6.80;99.90;6.70;100256.00;;;;4977053;28;82721;-64
2022/03/29 06:39:13;;;;;;;10.53;6.93;;;7.20;99.90;6.60;100255.00;;;;4977454;28;84155;-63
2022/03/29 06:41:40;;;;;;;13.93;7.17;;;7.10;99.90;6.60;100265.00;;;;4977902;28;82719;-63
2022/03/29 06:44:08;;;;;;;12.13;6.20;;;6.70;99.90;6.60;100259.00;;;;4977760;28;82641;-63
2022/03/29 06:46:34;;;;;;;13.23;7.47;;;6.70;99.90;6.60;100266.00;;;;4995413;28;82938;-64
2022/03/29 06:49:02;;;;;;;10.30;7.47;;;7.10;99.90;6.60;100266.00;;;;4989599;28;105937;-63
2022/03/29 06:51:30;;;;;;;10.80;6.77;;;6.70;99.90;6.70;100268.00;;;;4995793;28;83660;-64
2022/03/29 06:53:56;;;;;;;13.60;8.10;;;6.70;99.90;6.70;100263.00;;;;4998468;28;83167;-62
2022/03/29 06:56:23;;;;;;;10.03;6.67;;;6.70;99.90;6.70;100262.00;;;;4998165;28;82241;-62
2022/03/29 06:58:48;;;;;;;13.20;8.37;;;6.80;99.90;6.70;100258.00;;;;4998059;28;83769;-62
2022/03/29 07:01:14;;;;;;;13.03;7.70;;;6.80;99.90;6.70;100268.00;;;;4983351;28;112591;-64
2022/03/29 07:03:40;;;;;;;10.40;7.43;;;6.80;99.90;6.70;100266.00;;;;4979123;28;110676;-64
2022/03/29 07:06:30;;;;;;;13.87;8.40;;;6.70;99.90;6.60;100264.00;;;;4974040;28;82610;-65
2022/03/29 07:11:50;;;;;;;14.07;7.53;;;7.30;99.90;6.70;100256.00;;;;4977563;28;82847;-63
2022/03/29 07:14:15;;;;;;;14.70;7.73;;;6.80;99.90;6.70;100261.00;;;;4998359;28;95177;-63
2022/03/29 07:16:43;;;;;;;11.47;7.53;;;6.80;99.90;6.70;100265.00;;;;4996851;28;109262;-63
2022/03/29 07:19:09;;;;;;;12.53;8.00;;;6.40;99.90;6.70;100268.00;;;;4997841;28;83360;-63
2022/03/29 07:21:37;;;;;;;8.27;6.37;;;7.10;99.90;6.70;100262.00;;;;4997829;28;82780;-64
2022/03/29 07:24:04;;;;;;;11.53;6.80;;;6.80;99.90;6.80;100253.00;;;;4977865;28;82766;-64
2022/03/29 07:26:30;;;;;;;11.47;6.97;;;6.80;99.90;6.80;100248.00;;;;4977061;28;82634;-64
2022/03/29 07:28:56;;;;;;;11.53;8.13;;;7.30;99.90;6.90;100260.00;;;;4997487;28;84032;-64
2022/03/29 07:31:22;;;;;;;13.87;7.73;;;6.90;99.90;6.90;100257.00;;;;4996301;28;114200;-64
2022/03/29 07:33:48;;;;;;;13.97;8.77;;;7.00;99.90;6.90;100255.00;;;;4997805;28;82743;-65
2022/03/29 07:36:14;;;;;;;12.77;7.00;;;7.40;99.90;7.00;100262.00;;;;4996950;28;94988;-64
2022/03/29 07:38:40;;;;;;;12.43;7.87;;;7.00;99.90;7.00;100255.00;;;;4997561;28;112024;-63
2022/03/29 07:41:06;;;;;;;16.00;9.23;;;7.10;99.90;7.10;100254.00;;;;4996711;28;111468;-64
2022/03/29 07:43:31;;;;;;;16.13;8.50;;;7.10;99.90;7.10;100253.00;;;;4996479;28;96227;-64
2022/03/29 07:45:58;;;;;;;11.27;8.00;;;7.50;99.90;7.10;100258.00;;;;4996903;28;109729;-64
2022/03/29 07:48:24;;;;;;;10.67;7.40;;;7.40;99.90;7.10;100258.00;;;;4974493;28;84117;-64
2022/03/29 07:50:50;;;;;;;11.30;7.43;;;7.20;99.90;7.10;100250.00;;;;4964347;28;82970;-63
2022/03/29 07:53:16;;;;;;;12.57;7.87;;;7.20;99.90;7.10;100245.00;;;;4978481;28;83933;-63
2022/03/29 07:55:42;;;;;;;11.13;7.23;;;7.20;99.90;7.10;100250.00;;;;4997457;27;82627;-64
2022/03/29 07:58:08;;;;;;;11.57;7.53;;;7.20;99.90;7.20;100238.00;;;;5000406;28;83957;-64
2022/03/29 08:00:34;;;;;;;10.93;7.97;;;7.20;99.90;7.20;100237.00;;;;5001511;28;83750;-63
2022/03/29 08:03:06;;;;;;;13.27;8.13;;;7.30;99.90;7.30;100246.00;;;;5004459;28;82793;-64
2022/03/29 08:05:34;;;;;;;9.70;7.37;;;7.30;99.90;7.30;100249.00;;;;5000669;28;82690;-64
2022/03/29 08:08:01;;;;;;;11.43;7.93;;;7.40;99.90;7.30;100239.00;;;;5001032;28;83883;-64
2022/03/29 08:10:29;;;;;;;13.07;8.03;;;7.40;99.90;7.30;100236.00;;;;5001284;28;83779;-64
2022/03/29 08:12:57;;;;;;;13.43;8.13;;;7.40;99.90;7.40;100234.00;;;;4978699;28;82710;-65
2022/03/29 08:15:24;;;;;;;14.83;7.93;;;7.50;99.90;7.50;100232.00;;;;4979760;28;96240;-63
2022/03/29 08:17:50;;;;;;;17.27;8.63;;;7.50;99.90;7.60;100240.00;;;;4992028;28;84058;-64
2022/03/29 08:20:15;;;;;;;12.97;7.57;;;7.80;99.90;7.70;100225.00;;;;4963522;28;84052;-64
2022/03/29 08:22:44;;;;;;;13.10;7.30;;;7.70;99.90;7.70;100227.00;;;;4980913;28;82887;-64
2022/03/29 08:25:15;;;;;;;11.87;7.30;;;7.70;99.90;7.80;100229.00;;;;4951912;28;82690;-63
2022/03/29 08:27:43;;;;;;;10.20;6.23;;;7.80;99.90;7.80;100223.00;;;;4961190;28;82953;-63
2022/03/29 08:30:10;;;;;;;10.63;7.60;;;7.90;99.90;7.90;100225.00;;;;4961160;28;83948;-64
2022/03/29 08:32:37;;;;;;;13.93;7.67;;;7.90;99.90;7.90;100228.00;;;;4948563;28;83349;-64
2022/03/29 08:35:05;;;;;;;11.60;6.30;;;7.90;99.90;7.90;100218.00;;;;4967769;28;81922;-65
2022/03/29 08:37:31;;;;;;;16.57;8.33;;;8.00;99.90;8.00;100216.00;;;;4961142;28;83722;-64
2022/03/29 08:39:56;;;;;;;13.23;7.97;;;8.00;99.90;8.00;100231.00;;;;4979782;28;108242;-64
2022/03/29 08:42:23;;;;;;;15.10;7.60;;;8.00;99.90;8.00;100222.00;;;;4971606;28;83652;-64
2022/03/29 08:44:50;;;;;;;10.63;7.60;;;8.10;99.90;8.00;100218.00;;;;4959381;28;106929;-64
2022/03/29 08:47:17;;;;;;;12.77;8.57;;;8.10;99.90;8.10;100218.00;;;;4967272;28;83792;-62
2022/03/29 08:49:49;;;;;;;11.27;7.07;;;8.10;99.90;8.10;100217.00;;;;4979662;28;83637;-65
2022/03/29 08:52:17;;;;;;;9.83;6.60;;;8.20;99.90;8.20;100221.00;;;;4968964;28;82637;-65
2022/03/29 08:54:44;;;;;;;16.00;7.27;;;8.20;99.90;8.20;100212.00;;;;4960038;28;83841;-64
2022/03/29 08:57:11;;;;;;;14.10;7.17;;;8.20;99.90;8.20;100215.00;;;;4965979;28;83746;-64
2022/03/29 08:59:40;;;;;;;7.97;6.10;;;8.20;99.90;8.10;100218.00;;;;4979352;28;106469;-63
2022/03/29 09:02:16;;;;;;;12.80;6.33;;;8.20;99.90;8.10;100222.00;;;;4973448;28;83132;-64
2022/03/29 09:04:43;;;;;;;13.27;7.13;;;8.20;99.90;8.00;100214.00;;;;4959972;28;82741;-64
2022/03/29 09:07:09;;;;;;;17.73;7.57;;;8.10;99.90;8.00;100210.00;;;;4940459;28;102318;-64
2022/03/29 09:09:41;;;;;;;10.53;6.67;;;8.10;99.90;7.90;100218.00;;;;4959357;28;84564;-65
2022/03/29 09:12:17;;;;;;;10.83;6.40;;;8.00;99.90;7.90;100214.00;;;;4959484;28;82799;-65
2022/03/29 09:14:59;;;;;;;11.70;6.93;;;8.00;99.90;7.90;100209.00;;;;4960704;28;83198;-65
2022/03/29 09:17:40;;;;;;;14.07;7.37;;;7.90;99.90;7.90;100203.00;;;;4979919;28;84159;-64
2022/03/29 09:20:22;;;;;;;14.93;7.30;;;8.00;99.90;7.90;100194.00;;;;4997475;28;83361;-63
2022/03/29 09:22:55;;;;;;;14.63;6.83;;;8.00;99.90;8.00;100200.00;;;;4971569;28;82601;-64
2022/03/29 09:25:35;;;;;;;12.10;7.13;;;8.00;99.90;8.00;100196.00;;;;4991063;28;81785;-63
2022/03/29 09:28:13;;;;;;;9.80;6.23;;;8.10;99.90;8.00;100196.00;;;;4999227;28;83144;-63
2022/03/29 09:30:53;;;;;;;13.83;7.07;;;8.10;99.90;8.00;100199.00;;;;4999574;28;82909;-64
2022/03/29 09:33:31;;;;;;;13.30;7.53;;;8.00;99.90;8.00;100193.00;;;;4999144;28;83661;-65
2022/03/29 09:36:07;;;;;;;13.17;7.53;;;8.00;99.90;8.00;100202.00;;;;4998831;28;82923;-65
2022/03/29 09:38:42;;;;;;;15.43;7.20;;;8.10;99.90;8.10;100184.00;;;;4980131;28;83872;-65
2022/03/29 09:41:28;;;;;;;13.17;7.20;;;8.10;99.90;8.10;100188.00;;;;4999404;28;83653;-65
2022/03/29 09:44:09;;;;;;;16.57;8.37;;;8.10;99.90;8.10;100184.00;;;;4986881;28;83429;-64
2022/03/29 09:47:00;;;;;;;12.13;6.63;;;8.20;99.90;8.20;100183.00;;;;4998160;28;82711;-64
2022/03/29 09:49:27;;;;;;;15.50;7.80;;;8.20;99.90;8.30;100181.00;;;;4979114;28;83829;-64
2022/03/29 09:52:15;;;;;;;9.20;6.90;;;8.30;99.90;8.40;100171.00;;;;4994087;28;82769;-65
2022/03/29 09:54:42;;;;;;;13.83;6.50;;;8.40;99.90;8.40;100179.00;;;;4979116;28;82718;-63
2022/03/29 09:57:09;;;;;;;8.57;6.50;;;8.40;99.90;8.40;100175.00;;;;4985258;28;83478;-63
2022/03/29 09:59:48;;;;;;;14.07;8.67;;;8.50;99.90;8.30;100172.00;;;;4998121;28;84706;-63
2022/03/29 10:02:14;;;;;;;12.27;8.00;;;8.40;99.90;8.30;100175.00;;;;4998995;28;83928;-63
2022/03/29 10:04:41;;;;;;;13.17;7.50;;;8.40;99.90;8.30;100172.00;;;;4988961;28;110149;-63
2022/03/29 10:07:09;;;;;;;10.53;7.93;;;8.40;99.90;8.30;100160.00;;;;4978467;28;108711;-64
2022/03/29 10:09:38;;;;;;;12.67;7.33;;;8.40;99.90;8.30;100169.00;;;;4978865;28;87745;-63
2022/03/29 10:12:09;;;;;;;8.73;6.37;;;8.40;99.90;8.40;100162.00;;;;4984203;28;82593;-63
2022/03/29 10:14:44;;;;;;;17.00;7.90;;;8.40;99.90;8.40;100162.00;;;;4999018;28;82660;-64
2022/03/29 10:17:13;;;;;;;18.07;8.23;;;8.40;99.90;8.50;100163.00;;;;4988096;28;81959;-64
2022/03/29 10:19:39;;;;;;;15.27;7.90;;;8.50;99.90;8.60;100168.00;;;;4976385;28;94265;-63
2022/03/29 10:22:05;;;;;;;12.63;7.50;;;8.60;99.90;8.60;100157.00;;;;4962338;28;85443;-63
2022/03/29 10:24:31;;;;;;;9.93;6.80;;;8.60;99.90;8.60;100166.00;;;;4981764;28;83620;-65
2022/03/29 10:27:00;;;;;;;10.33;6.30;;;8.60;99.90;8.70;100156.00;;;;4994582;28;85564;-64
2022/03/29 10:29:27;;;;;;;15.97;6.90;;;8.70;99.90;8.70;100156.00;;;;4963337;28;83130;-63
2022/03/29 10:31:55;;;;;;;15.40;8.67;;;8.70;99.90;8.90;100156.00;;;;4981697;28;104956;-64
2022/03/29 10:34:40;;;;;;;12.60;7.07;;;8.80;99.90;9.00;100154.00;;;;4999132;28;82718;-64
2022/03/29 10:37:21;;;;;;;14.70;6.70;;;8.90;99.90;9.10;100149.00;;;;4961543;28;82760;-63
2022/03/29 10:39:51;;;;;;;10.97;6.73;;;9.00;99.90;9.10;100147.00;;;;4978685;28;83550;-63
2022/03/29 10:42:36;;;;;;;17.37;8.80;;;9.10;99.90;9.20;100138.00;;;;4985502;28;83125;-64
2022/03/29 10:45:05;;;;;;;13.87;8.30;;;9.20;99.90;9.30;100143.00;;;;4998181;28;82560;-64
2022/03/29 10:47:32;;;;;;;9.87;7.33;;;9.30;99.90;9.30;100141.00;;;;4989508;28;82879;-64
2022/03/29 10:50:00;;;;;;;11.17;7.30;;;9.30;99.90;9.40;100144.00;;;;4979005;28;84946;-64
2022/03/29 10:52:25;;;;;;;13.90;8.27;;;9.40;99.90;9.50;100139.00;;;;4998118;28;83666;-64
2022/03/29 10:54:53;;;;;;;11.77;8.33;;;9.40;99.90;9.60;100143.00;;;;4998845;28;82620;-64
2022/03/29 10:57:28;;;;;;;12.13;7.37;;;9.50;99.80;9.70;100149.00;;;;4998397;28;82515;-63
2022/03/29 11:00:12;;;;;;;15.37;8.17;;;9.60;99.40;9.70;100136.00;;;;4997846;28;82796;-64
2022/03/29 11:03:11;;;;;;;14.43;8.43;;;9.70;98.20;9.70;100140.00;;;;4997838;28;83597;-64
2022/03/29 11:06:10;;;;;;;14.97;6.53;;;9.80;97.90;9.80;100138.00;;;;4997707;28;82673;-65
2022/03/29 11:08:47;;;;;;;13.10;7.93;;;9.80;97.90;9.90;100128.00;;;;4978675;28;82027;-64